Terminal Aerodrome Forecast
Issued by NWS

Home | Current Version | Previous Version | Text Only | Print | Product List | Glossary On
Versions: 1 2 3 4 5 6 7 8 9 10 11 12 13 14 15
000
FTUS46 KSEW 042348 AAA
TAFHQM
TAF AMD
KHQM 042348Z 0500/0524 26015KT P6SM FEW050 SCT080
     FM050300 30004KT P6SM FEW250
     FM051300 23009KT P6SM SCT007 BKN015
     FM051900 24012KT P6SM SCT100=

USA.gov is the U.S. government's official web portal to all federal, state and local government web resources and services.